sensor_id;sensor_type;location;lat;lon;timestamp;temperature;humidity
18894;DHT22;9579;49.488;8.226;2023-02-28T00:02:08;4.10;81.10
18894;DHT22;9579;49.488;8.226;2023-02-28T00:05:09;4.20;81.50
18894;DHT22;9579;49.488;8.226;2023-02-28T00:07:57;4.10;82.50
18894;DHT22;9579;49.488;8.226;2023-02-28T00:11:04;4.00;82.00
18894;DHT22;9579;49.488;8.226;2023-02-28T00:14:03;4.00;82.40
18894;DHT22;9579;49.488;8.226;2023-02-28T00:16:51;3.90;82.50
18894;DHT22;9579;49.488;8.226;2023-02-28T00:19:51;3.90;83.00
18894;DHT22;9579;49.488;8.226;2023-02-28T00:22:43;3.90;82.80
18894;DHT22;9579;49.488;8.226;2023-02-28T00:25:31;4.00;82.90
18894;DHT22;9579;49.488;8.226;2023-02-28T00:28:18;4.00;82.90
18894;DHT22;9579;49.488;8.226;2023-02-28T00:31:06;4.00;82.90
18894;DHT22;9579;49.488;8.226;2023-02-28T00:33:53;3.90;83.20
18894;DHT22;9579;49.488;8.226;2023-02-28T00:36:42;3.90;83.30
18894;DHT22;9579;49.488;8.226;2023-02-28T00:39:31;4.00;83.30
18894;DHT22;9579;49.488;8.226;2023-02-28T00:42:18;3.90;83.30
18894;DHT22;9579;49.488;8.226;2023-02-28T00:45:11;4.00;83.40
18894;DHT22;9579;49.488;8.226;2023-02-28T00:48:09;3.90;83.80
18894;DHT22;9579;49.488;8.226;2023-02-28T00:50:56;3.90;83.90
18894;DHT22;9579;49.488;8.226;2023-02-28T00:53:50;3.90;84.00
18894;DHT22;9579;49.488;8.226;2023-02-28T00:56:37;3.90;83.90
18894;DHT22;9579;49.488;8.226;2023-02-28T00:59:25;3.90;84.30
18894;DHT22;9579;49.488;8.226;2023-02-28T01:02:32;3.80;83.90
18894;DHT22;9579;49.488;8.226;2023-02-28T01:05:22;3.80;84.10
18894;DHT22;9579;49.488;8.226;2023-02-28T01:08:10;3.80;84.60
18894;DHT22;9579;49.488;8.226;2023-02-28T01:11:12;3.70;85.20
18894;DHT22;9579;49.488;8.226;2023-02-28T01:14:01;3.70;85.60
18894;DHT22;9579;49.488;8.226;2023-02-28T01:16:52;3.80;85.10
18894;DHT22;9579;49.488;8.226;2023-02-28T01:19:39;3.60;84.90
18894;DHT22;9579;49.488;8.226;2023-02-28T01:22:46;3.70;85.10
18894;DHT22;9579;49.488;8.226;2023-02-28T01:25:40;3.60;85.60
18894;DHT22;9579;49.488;8.226;2023-02-28T01:28:38;3.60;85.90
18894;DHT22;9579;49.488;8.226;2023-02-28T01:31:35;3.60;85.80
18894;DHT22;9579;49.488;8.226;2023-02-28T01:34:25;3.60;86.20
18894;DHT22;9579;49.488;8.226;2023-02-28T01:37:12;3.40;86.50
18894;DHT22;9579;49.488;8.226;2023-02-28T01:39:59;3.50;86.10
18894;DHT22;9579;49.488;8.226;2023-02-28T01:42:46;3.50;86.40
18894;DHT22;9579;49.488;8.226;2023-02-28T01:45:35;3.50;85.90
18894;DHT22;9579;49.488;8.226;2023-02-28T01:48:26;3.50;86.50
18894;DHT22;9579;49.488;8.226;2023-02-28T01:51:16;3.40;86.30
18894;DHT22;9579;49.488;8.226;2023-02-28T01:54:07;3.30;86.80
18894;DHT22;9579;49.488;8.226;2023-02-28T01:57:01;3.30;87.00
18894;DHT22;9579;49.488;8.226;2023-02-28T01:59:53;3.30;86.90
18894;DHT22;9579;49.488;8.226;2023-02-28T02:02:44;3.10;87.20
18894;DHT22;9579;49.488;8.226;2023-02-28T02:05:32;3.10;87.70
18894;DHT22;9579;49.488;8.226;2023-02-28T02:08:22;3.00;87.90
18894;DHT22;9579;49.488;8.226;2023-02-28T02:11:11;3.10;87.90
18894;DHT22;9579;49.488;8.226;2023-02-28T02:14:12;3.10;88.00
18894;DHT22;9579;49.488;8.226;2023-02-28T02:17:14;3.10;88.10
18894;DHT22;9579;49.488;8.226;2023-02-28T02:20:29;3.00;87.90
18894;DHT22;9579;49.488;8.226;2023-02-28T08:25:03;4.80;89.60
18894;DHT22;9579;49.488;8.226;2023-02-28T08:27:50;5.00;88.40
18894;DHT22;9579;49.488;8.226;2023-02-28T08:30:38;5.10;87.80
18894;DHT22;9579;49.488;8.226;2023-02-28T08:33:27;5.10;87.70
18894;DHT22;9579;49.488;8.226;2023-02-28T08:36:14;5.30;87.80
18894;DHT22;9579;49.488;8.226;2023-02-28T08:39:02;5.40;87.00
18894;DHT22;9579;49.488;8.226;2023-02-28T08:41:50;5.60;86.90
18894;DHT22;9579;49.488;8.226;2023-02-28T08:44:38;5.90;86.60
18894;DHT22;9579;49.488;8.226;2023-02-28T08:47:26;6.10;86.50
18894;DHT22;9579;49.488;8.226;2023-02-28T08:50:13;6.50;85.70
18894;DHT22;9579;49.488;8.226;2023-02-28T08:53:00;6.90;83.90
18894;DHT22;9579;49.488;8.226;2023-02-28T08:55:48;7.00;81.80
18894;DHT22;9579;49.488;8.226;2023-02-28T08:58:43;7.10;81.10
18894;DHT22;9579;49.488;8.226;2023-02-28T09:01:31;7.20;81.20
18894;DHT22;9579;49.488;8.226;2023-02-28T09:04:18;7.40;79.60
18894;DHT22;9579;49.488;8.226;2023-02-28T09:07:05;7.70;79.10
18894;DHT22;9579;49.488;8.226;2023-02-28T09:09:52;7.70;78.90
18894;DHT22;9579;49.488;8.226;2023-02-28T09:12:43;7.60;77.00
18894;DHT22;9579;49.488;8.226;2023-02-28T09:15:33;7.40;76.90
18894;DHT22;9579;49.488;8.226;2023-02-28T09:18:20;7.30;77.60
18894;DHT22;9579;49.488;8.226;2023-02-28T09:21:10;7.60;78.20
18894;DHT22;9579;49.488;8.226;2023-02-28T09:23:59;7.50;76.90
18894;DHT22;9579;49.488;8.226;2023-02-28T09:26:46;7.20;77.20
18894;DHT22;9579;49.488;8.226;2023-02-28T09:29:34;7.00;77.80
18894;DHT22;9579;49.488;8.226;2023-02-28T09:32:22;7.50;78.60
18894;DHT22;9579;49.488;8.226;2023-02-28T09:35:10;7.60;77.00
18894;DHT22;9579;49.488;8.226;2023-02-28T09:37:59;7.60;76.80
18894;DHT22;9579;49.488;8.226;2023-02-28T09:40:51;7.70;75.90
18894;DHT22;9579;49.488;8.226;2023-02-28T09:43:41;7.70;74.60
18894;DHT22;9579;49.488;8.226;2023-02-28T09:46:32;7.30;75.60
18894;DHT22;9579;49.488;8.226;2023-02-28T09:49:24;7.10;76.90
18894;DHT22;9579;49.488;8.226;2023-02-28T09:52:15;7.20;76.20
18894;DHT22;9579;49.488;8.226;2023-02-28T09:55:19;7.20;76.30
18894;DHT22;9579;49.488;8.226;2023-02-28T09:58:15;7.30;74.90
18894;DHT22;9579;49.488;8.226;2023-02-28T10:01:07;7.70;75.40
18894;DHT22;9579;49.488;8.226;2023-02-28T10:03:57;7.90;74.30
18894;DHT22;9579;49.488;8.226;2023-02-28T10:06:49;7.40;74.10
18894;DHT22;9579;49.488;8.226;2023-02-28T10:09:37;7.60;75.90
18894;DHT22;9579;49.488;8.226;2023-02-28T10:12:24;8.30;76.00
18894;DHT22;9579;49.488;8.226;2023-02-28T10:15:16;8.40;73.20
18894;DHT22;9579;49.488;8.226;2023-02-28T10:18:06;8.80;73.20
18894;DHT22;9579;49.488;8.226;2023-02-28T10:20:57;8.90;70.90
18894;DHT22;9579;49.488;8.226;2023-02-28T10:23:48;9.00;71.90
18894;DHT22;9579;49.488;8.226;2023-02-28T10:26:36;9.00;69.90
18894;DHT22;9579;49.488;8.226;2023-02-28T10:29:23;8.70;68.30
18894;DHT22;9579;49.488;8.226;2023-02-28T10:32:14;8.60;71.40
18894;DHT22;9579;49.488;8.226;2023-02-28T10:35:14;9.10;71.70
18894;DHT22;9579;49.488;8.226;2023-02-28T10:38:15;9.40;70.80
18894;DHT22;9579;49.488;8.226;2023-02-28T10:41:09;9.30;68.80
18894;DHT22;9579;49.488;8.226;2023-02-28T10:44:19;9.40;68.90
18894;DHT22;9579;49.488;8.226;2023-02-28T10:47:14;9.70;68.20
18894;DHT22;9579;49.488;8.226;2023-02-28T10:50:01;9.80;67.00
18894;DHT22;9579;49.488;8.226;2023-02-28T10:52:48;9.90;67.20
18894;DHT22;9579;49.488;8.226;2023-02-28T10:55:36;10.00;66.40
18894;DHT22;9579;49.488;8.226;2023-02-28T10:58:28;9.60;65.60
18894;DHT22;9579;49.488;8.226;2023-02-28T11:01:17;9.50;66.20
18894;DHT22;9579;49.488;8.226;2023-02-28T11:04:17;9.70;67.00
18894;DHT22;9579;49.488;8.226;2023-02-28T11:07:06;9.70;66.00
18894;DHT22;9579;49.488;8.226;2023-02-28T11:10:04;9.10;65.40
18894;DHT22;9579;49.488;8.226;2023-02-28T11:12:54;9.10;66.80
18894;DHT22;9579;49.488;8.226;2023-02-28T11:15:50;9.20;66.90
18894;DHT22;9579;49.488;8.226;2023-02-28T11:18:41;9.30;66.50
18894;DHT22;9579;49.488;8.226;2023-02-28T11:21:31;9.60;66.70
18894;DHT22;9579;49.488;8.226;2023-02-28T11:24:24;9.40;66.00
18894;DHT22;9579;49.488;8.226;2023-02-28T11:27:25;9.10;67.00
18894;DHT22;9579;49.488;8.226;2023-02-28T11:30:30;9.10;67.20
18894;DHT22;9579;49.488;8.226;2023-02-28T11:33:25;9.70;67.30
18894;DHT22;9579;49.488;8.226;2023-02-28T11:36:16;9.70;65.90
18894;DHT22;9579;49.488;8.226;2023-02-28T11:39:10;9.40;64.90
18894;DHT22;9579;49.488;8.226;2023-02-28T11:42:26;9.20;66.70
18894;DHT22;9579;49.488;8.226;2023-02-28T11:45:25;9.20;67.90
18894;DHT22;9579;49.488;8.226;2023-02-28T11:48:21;9.10;66.20
18894;DHT22;9579;49.488;8.226;2023-02-28T11:51:15;9.30;66.80
18894;DHT22;9579;49.488;8.226;2023-02-28T11:54:20;9.20;67.20
18894;DHT22;9579;49.488;8.226;2023-02-28T11:57:20;9.20;67.70
18894;DHT22;9579;49.488;8.226;2023-02-28T12:00:19;9.30;67.60
18894;DHT22;9579;49.488;8.226;2023-02-28T12:03:17;9.40;68.00
18894;DHT22;9579;49.488;8.226;2023-02-28T12:06:20;9.60;68.10
18894;DHT22;9579;49.488;8.226;2023-02-28T12:09:27;9.70;65.70
18894;DHT22;9579;49.488;8.226;2023-02-28T12:12:28;10.10;65.80
18894;DHT22;9579;49.488;8.226;2023-02-28T12:15:28;10.10;64.60
18894;DHT22;9579;49.488;8.226;2023-02-28T12:18:28;9.80;65.60
18894;DHT22;9579;49.488;8.226;2023-02-28T12:21:26;9.90;67.20
18894;DHT22;9579;49.488;8.226;2023-02-28T12:24:28;10.00;64.30
18894;DHT22;9579;49.488;8.226;2023-02-28T12:27:27;10.10;65.20
18894;DHT22;9579;49.488;8.226;2023-02-28T12:30:21;10.60;65.90
18894;DHT22;9579;49.488;8.226;2023-02-28T12:33:12;11.20;62.60
18894;DHT22;9579;49.488;8.226;2023-02-28T12:36:04;11.70;63.90
18894;DHT22;9579;49.488;8.226;2023-02-28T12:38:58;12.30;61.60
18894;DHT22;9579;49.488;8.226;2023-02-28T12:41:49;12.10;60.00
18894;DHT22;9579;49.488;8.226;2023-02-28T12:44:44;11.60;59.30
18894;DHT22;9579;49.488;8.226;2023-02-28T12:47:32;11.20;60.50
18894;DHT22;9579;49.488;8.226;2023-02-28T12:50:20;11.40;61.80
18894;DHT22;9579;49.488;8.226;2023-02-28T12:53:11;11.80;60.80
18894;DHT22;9579;49.488;8.226;2023-02-28T12:56:13;12.20;59.70
18894;DHT22;9579;49.488;8.226;2023-02-28T12:59:07;12.00;59.10
18894;DHT22;9579;49.488;8.226;2023-02-28T13:05:19;12.00;60.90
18894;DHT22;9579;49.488;8.226;2023-02-28T13:11:32;11.80;59.20
18894;DHT22;9579;49.488;8.226;2023-02-28T13:14:24;11.50;60.70
18894;DHT22;9579;49.488;8.226;2023-02-28T13:17:14;11.60;61.40
18894;DHT22;9579;49.488;8.226;2023-02-28T13:20:15;11.40;60.60
18894;DHT22;9579;49.488;8.226;2023-02-28T13:23:03;11.60;60.60
18894;DHT22;9579;49.488;8.226;2023-02-28T13:25:51;12.00;60.50
18894;DHT22;9579;49.488;8.226;2023-02-28T13:29:02;12.40;60.40
18894;DHT22;9579;49.488;8.226;2023-02-28T13:32:30;11.90;59.50
18894;DHT22;9579;49.488;8.226;2023-02-28T13:35:37;12.40;60.90
18894;DHT22;9579;49.488;8.226;2023-02-28T13:38:39;13.40;59.30
18894;DHT22;9579;49.488;8.226;2023-02-28T13:41:47;13.60;57.80
18894;DHT22;9579;49.488;8.226;2023-02-28T13:45:19;14.20;58.20
18894;DHT22;9579;49.488;8.226;2023-02-28T13:48:17;14.40;56.70
18894;DHT22;9579;49.488;8.226;2023-02-28T13:51:39;15.10;56.20
18894;DHT22;9579;49.488;8.226;2023-02-28T13:54:34;15.80;55.70
18894;DHT22;9579;49.488;8.226;2023-02-28T13:57:35;16.50;55.10
18894;DHT22;9579;49.488;8.226;2023-02-28T14:00:41;17.00;53.90
18894;DHT22;9579;49.488;8.226;2023-02-28T14:06:48;15.40;54.00
18894;DHT22;9579;49.488;8.226;2023-02-28T14:09:39;14.90;54.00
18894;DHT22;9579;49.488;8.226;2023-02-28T14:12:51;15.30;55.80
18894;DHT22;9579;49.488;8.226;2023-02-28T14:16:00;16.20;53.90
18894;DHT22;9579;49.488;8.226;2023-02-28T14:18:50;15.90;52.50
18894;DHT22;9579;49.488;8.226;2023-02-28T14:21:40;15.60;53.80
18894;DHT22;9579;49.488;8.226;2023-02-28T14:47:14;15.60;54.00
18894;DHT22;9579;49.488;8.226;2023-02-28T14:50:04;16.50;53.90
18894;DHT22;9579;49.488;8.226;2023-02-28T14:52:52;16.80;52.90
18894;DHT22;9579;49.488;8.226;2023-02-28T14:55:44;16.90;51.90
18894;DHT22;9579;49.488;8.226;2023-02-28T14:58:33;16.30;51.30
18894;DHT22;9579;49.488;8.226;2023-02-28T21:41:35;4.20;84.20
18894;DHT22;9579;49.488;8.226;2023-02-28T21:44:23;4.10;84.60
18894;DHT22;9579;49.488;8.226;2023-02-28T21:47:13;4.00;84.70
18894;DHT22;9579;49.488;8.226;2023-02-28T21:49:59;3.90;85.40
18894;DHT22;9579;49.488;8.226;2023-02-28T21:52:47;3.90;85.90
18894;DHT22;9579;49.488;8.226;2023-02-28T21:55:34;3.90;85.70
18894;DHT22;9579;49.488;8.226;2023-02-28T21:58:22;3.90;85.70
18894;DHT22;9579;49.488;8.226;2023-02-28T22:01:11;3.90;85.70
18894;DHT22;9579;49.488;8.226;2023-02-28T22:03:59;4.00;85.60
18894;DHT22;9579;49.488;8.226;2023-02-28T22:06:47;4.00;85.20
18894;DHT22;9579;49.488;8.226;2023-02-28T22:09:34;4.00;85.20
18894;DHT22;9579;49.488;8.226;2023-02-28T22:12:21;4.00;85.40
18894;DHT22;9579;49.488;8.226;2023-02-28T22:15:10;4.00;85.70
18894;DHT22;9579;49.488;8.226;2023-02-28T22:17:58;3.90;85.70
18894;DHT22;9579;49.488;8.226;2023-02-28T22:20:53;3.90;85.90
18894;DHT22;9579;49.488;8.226;2023-02-28T22:23:41;3.90;86.50
18894;DHT22;9579;49.488;8.226;2023-02-28T22:26:30;3.90;85.90
18894;DHT22;9579;49.488;8.226;2023-02-28T22:29:17;3.80;86.20
18894;DHT22;9579;49.488;8.226;2023-02-28T22:32:08;3.80;86.50
18894;DHT22;9579;49.488;8.226;2023-02-28T22:34:56;3.80;86.60
18894;DHT22;9579;49.488;8.226;2023-02-28T22:37:50;3.80;86.50
18894;DHT22;9579;49.488;8.226;2023-02-28T22:40:37;3.90;86.50
18894;DHT22;9579;49.488;8.226;2023-02-28T22:43:25;3.80;87.20
18894;DHT22;9579;49.488;8.226;2023-02-28T22:46:13;3.70;86.60
18894;DHT22;9579;49.488;8.226;2023-02-28T22:49:03;3.50;87.00
18894;DHT22;9579;49.488;8.226;2023-02-28T22:51:50;3.50;87.20
18894;DHT22;9579;49.488;8.226;2023-02-28T22:54:37;3.50;87.80
18894;DHT22;9579;49.488;8.226;2023-02-28T22:57:24;3.50;87.70
18894;DHT22;9579;49.488;8.226;2023-02-28T23:00:13;3.50;88.00
18894;DHT22;9579;49.488;8.226;2023-02-28T23:03:00;3.40;88.30
18894;DHT22;9579;49.488;8.226;2023-02-28T23:05:49;3.40;88.50
18894;DHT22;9579;49.488;8.226;2023-02-28T23:08:36;3.40;88.70
18894;DHT22;9579;49.488;8.226;2023-02-28T23:11:26;3.50;88.70
18894;DHT22;9579;49.488;8.226;2023-02-28T23:14:16;3.50;88.20
18894;DHT22;9579;49.488;8.226;2023-02-28T23:17:04;3.50;88.60
18894;DHT22;9579;49.488;8.226;2023-02-28T23:19:51;3.50;88.80
18894;DHT22;9579;49.488;8.226;2023-02-28T23:22:40;3.50;88.60
18894;DHT22;9579;49.488;8.226;2023-02-28T23:25:31;3.50;88.90
18894;DHT22;9579;49.488;8.226;2023-02-28T23:28:18;3.50;88.70
18894;DHT22;9579;49.488;8.226;2023-02-28T23:31:05;3.50;88.60
18894;DHT22;9579;49.488;8.226;2023-02-28T23:33:52;3.50;88.80
18894;DHT22;9579;49.488;8.226;2023-02-28T23:36:40;3.50;88.80
18894;DHT22;9579;49.488;8.226;2023-02-28T23:39:32;3.50;88.80
18894;DHT22;9579;49.488;8.226;2023-02-28T23:42:19;3.40;88.60
18894;DHT22;9579;49.488;8.226;2023-02-28T23:45:07;3.30;89.40
18894;DHT22;9579;49.488;8.226;2023-02-28T23:47:54;3.20;89.10
18894;DHT22;9579;49.488;8.226;2023-02-28T23:50:41;3.10;89.00
18894;DHT22;9579;49.488;8.226;2023-02-28T23:53:30;3.00;89.70
18894;DHT22;9579;49.488;8.226;2023-02-28T23:56:22;2.90;89.80
18894;DHT22;9579;49.488;8.226;2023-02-28T23:59:09;2.90;90.10
